sensor_id;sensor_type;location;lat;lon;timestamp;P1;durP1;ratioP1;P2;durP2;ratioP2
9076;SDS011;4574;51.072;17.174;2023-06-22T00:01:51;16.37;;;12.90;;
9076;SDS011;4574;51.072;17.174;2023-06-22T00:04:20;13.70;;;12.30;;
9076;SDS011;4574;51.072;17.174;2023-06-22T00:06:48;41.17;;;33.23;;
9076;SDS011;4574;51.072;17.174;2023-06-22T00:09:17;18.90;;;15.20;;
9076;SDS011;4574;51.072;17.174;2023-06-22T00:11:46;21.43;;;16.00;;
9076;SDS011;4574;51.072;17.174;2023-06-22T00:14:16;26.83;;;22.40;;
9076;SDS011;4574;51.072;17.174;2023-06-22T00:16:44;30.20;;;23.90;;
9076;SDS011;4574;51.072;17.174;2023-06-22T00:19:17;22.77;;;20.13;;
9076;SDS011;4574;51.072;17.174;2023-06-22T00:21:47;18.57;;;15.90;;
9076;SDS011;4574;51.072;17.174;2023-06-22T00:24:19;15.23;;;13.43;;
9076;SDS011;4574;51.072;17.174;2023-06-22T00:26:48;16.67;;;14.93;;
9076;SDS011;4574;51.072;17.174;2023-06-22T00:29:18;15.70;;;13.90;;
9076;SDS011;4574;51.072;17.174;2023-06-22T00:31:51;17.23;;;14.27;;
9076;SDS011;4574;51.072;17.174;2023-06-22T00:34:20;16.00;;;14.37;;
9076;SDS011;4574;51.072;17.174;2023-06-22T00:36:48;18.80;;;15.17;;
9076;SDS011;4574;51.072;17.174;2023-06-22T00:39:18;17.90;;;15.93;;
9076;SDS011;4574;51.072;17.174;2023-06-22T00:41:47;28.67;;;22.60;;
9076;SDS011;4574;51.072;17.174;2023-06-22T00:44:15;19.67;;;17.17;;
9076;SDS011;4574;51.072;17.174;2023-06-22T00:46:45;28.90;;;21.90;;
9076;SDS011;4574;51.072;17.174;2023-06-22T00:49:14;23.43;;;18.63;;
9076;SDS011;4574;51.072;17.174;2023-06-22T00:51:42;24.17;;;19.40;;
9076;SDS011;4574;51.072;17.174;2023-06-22T00:54:14;27.07;;;20.83;;
9076;SDS011;4574;51.072;17.174;2023-06-22T00:56:43;14.93;;;13.23;;
9076;SDS011;4574;51.072;17.174;2023-06-22T00:59:12;17.10;;;15.30;;
9076;SDS011;4574;51.072;17.174;2023-06-22T01:01:46;37.23;;;27.90;;
9076;SDS011;4574;51.072;17.174;2023-06-22T01:04:14;25.10;;;17.80;;
9076;SDS011;4574;51.072;17.174;2023-06-22T01:06:44;27.60;;;20.67;;
9076;SDS011;4574;51.072;17.174;2023-06-22T01:09:21;23.63;;;19.00;;
9076;SDS011;4574;51.072;17.174;2023-06-22T01:11:57;19.43;;;17.07;;
9076;SDS011;4574;51.072;17.174;2023-06-22T01:14:31;17.50;;;14.67;;
9076;SDS011;4574;51.072;17.174;2023-06-22T01:17:10;16.83;;;15.03;;
9076;SDS011;4574;51.072;17.174;2023-06-22T01:19:43;18.17;;;15.63;;
9076;SDS011;4574;51.072;17.174;2023-06-22T01:22:14;17.33;;;15.03;;
9076;SDS011;4574;51.072;17.174;2023-06-22T01:24:48;15.27;;;13.67;;
9076;SDS011;4574;51.072;17.174;2023-06-22T01:27:32;21.80;;;18.23;;
9076;SDS011;4574;51.072;17.174;2023-06-22T01:30:09;26.50;;;22.30;;
9076;SDS011;4574;51.072;17.174;2023-06-22T01:32:39;23.00;;;18.53;;
9076;SDS011;4574;51.072;17.174;2023-06-22T01:35:08;15.50;;;13.43;;
9076;SDS011;4574;51.072;17.174;2023-06-22T01:37:38;22.47;;;17.83;;
9076;SDS011;4574;51.072;17.174;2023-06-22T01:40:07;35.23;;;29.47;;
9076;SDS011;4574;51.072;17.174;2023-06-22T01:42:37;21.90;;;17.33;;
9076;SDS011;4574;51.072;17.174;2023-06-22T01:45:07;30.57;;;23.47;;
9076;SDS011;4574;51.072;17.174;2023-06-22T01:47:38;19.17;;;11.93;;
9076;SDS011;4574;51.072;17.174;2023-06-22T01:50:08;12.80;;;11.37;;
9076;SDS011;4574;51.072;17.174;2023-06-22T01:52:37;11.53;;;10.43;;
9076;SDS011;4574;51.072;17.174;2023-06-22T01:55:06;12.17;;;11.00;;
9076;SDS011;4574;51.072;17.174;2023-06-22T01:57:36;14.03;;;11.30;;
9076;SDS011;4574;51.072;17.174;2023-06-22T02:00:06;11.73;;;10.50;;
9076;SDS011;4574;51.072;17.174;2023-06-22T02:02:42;21.97;;;19.30;;
9076;SDS011;4574;51.072;17.174;2023-06-22T02:05:17;17.30;;;14.80;;
9076;SDS011;4574;51.072;17.174;2023-06-22T02:07:49;14.53;;;13.07;;
9076;SDS011;4574;51.072;17.174;2023-06-22T02:10:23;33.87;;;24.10;;
9076;SDS011;4574;51.072;17.174;2023-06-22T02:12:54;13.63;;;11.33;;
9076;SDS011;4574;51.072;17.174;2023-06-22T02:15:26;27.53;;;22.40;;
9076;SDS011;4574;51.072;17.174;2023-06-22T02:17:55;22.10;;;19.70;;
9076;SDS011;4574;51.072;17.174;2023-06-22T02:20:24;19.07;;;15.53;;
9076;SDS011;4574;51.072;17.174;2023-06-22T02:22:54;17.07;;;14.87;;
9076;SDS011;4574;51.072;17.174;2023-06-22T02:25:23;47.77;;;32.67;;
9076;SDS011;4574;51.072;17.174;2023-06-22T02:27:52;29.83;;;22.67;;
9076;SDS011;4574;51.072;17.174;2023-06-22T02:30:20;17.93;;;13.90;;
9076;SDS011;4574;51.072;17.174;2023-06-22T02:32:50;11.50;;;10.40;;
9076;SDS011;4574;51.072;17.174;2023-06-22T02:35:26;11.33;;;10.20;;
9076;SDS011;4574;51.072;17.174;2023-06-22T02:37:58;12.50;;;10.43;;
9076;SDS011;4574;51.072;17.174;2023-06-22T02:40:27;29.30;;;23.07;;
9076;SDS011;4574;51.072;17.174;2023-06-22T02:42:57;19.20;;;15.50;;
9076;SDS011;4574;51.072;17.174;2023-06-22T02:45:29;13.03;;;11.53;;
9076;SDS011;4574;51.072;17.174;2023-06-22T02:47:59;12.73;;;11.00;;
9076;SDS011;4574;51.072;17.174;2023-06-22T02:50:27;11.60;;;10.50;;
9076;SDS011;4574;51.072;17.174;2023-06-22T02:52:56;11.47;;;10.37;;
9076;SDS011;4574;51.072;17.174;2023-06-22T02:55:28;11.70;;;10.50;;
9076;SDS011;4574;51.072;17.174;2023-06-22T02:57:57;13.03;;;10.27;;
9076;SDS011;4574;51.072;17.174;2023-06-22T03:00:26;11.40;;;10.20;;
9076;SDS011;4574;51.072;17.174;2023-06-22T03:02:59;12.20;;;10.90;;
9076;SDS011;4574;51.072;17.174;2023-06-22T03:05:27;11.87;;;10.67;;
9076;SDS011;4574;51.072;17.174;2023-06-22T03:07:57;11.13;;;9.97;;
9076;SDS011;4574;51.072;17.174;2023-06-22T03:10:26;12.87;;;10.97;;
9076;SDS011;4574;51.072;17.174;2023-06-22T03:12:55;11.40;;;10.30;;
9076;SDS011;4574;51.072;17.174;2023-06-22T03:15:23;12.53;;;10.40;;
9076;SDS011;4574;51.072;17.174;2023-06-22T03:17:53;11.40;;;9.90;;
9076;SDS011;4574;51.072;17.174;2023-06-22T03:20:23;11.10;;;9.90;;
9076;SDS011;4574;51.072;17.174;2023-06-22T03:22:54;11.93;;;10.73;;
9076;SDS011;4574;51.072;17.174;2023-06-22T03:25:22;12.63;;;10.40;;
9076;SDS011;4574;51.072;17.174;2023-06-22T03:27:51;11.97;;;10.37;;
9076;SDS011;4574;51.072;17.174;2023-06-22T03:30:20;12.43;;;11.20;;
9076;SDS011;4574;51.072;17.174;2023-06-22T03:32:48;12.30;;;11.10;;
9076;SDS011;4574;51.072;17.174;2023-06-22T03:35:18;13.73;;;10.77;;
9076;SDS011;4574;51.072;17.174;2023-06-22T03:37:50;12.30;;;11.03;;
9076;SDS011;4574;51.072;17.174;2023-06-22T03:40:19;14.27;;;10.67;;
9076;SDS011;4574;51.072;17.174;2023-06-22T03:42:47;12.27;;;10.97;;
9076;SDS011;4574;51.072;17.174;2023-06-22T03:45:16;12.13;;;10.83;;
9076;SDS011;4574;51.072;17.174;2023-06-22T03:47:45;14.53;;;10.03;;
9076;SDS011;4574;51.072;17.174;2023-06-22T03:50:13;12.00;;;10.80;;
9076;SDS011;4574;51.072;17.174;2023-06-22T03:52:43;12.73;;;11.40;;
9076;SDS011;4574;51.072;17.174;2023-06-22T03:55:12;11.93;;;10.60;;
9076;SDS011;4574;51.072;17.174;2023-06-22T03:57:40;12.37;;;10.77;;
9076;SDS011;4574;51.072;17.174;2023-06-22T04:00:09;12.50;;;11.20;;
9076;SDS011;4574;51.072;17.174;2023-06-22T04:02:39;12.10;;;10.83;;
9076;SDS011;4574;51.072;17.174;2023-06-22T04:05:08;11.40;;;10.20;;
9076;SDS011;4574;51.072;17.174;2023-06-22T04:07:37;13.30;;;10.73;;
9076;SDS011;4574;51.072;17.174;2023-06-22T04:10:08;13.13;;;11.83;;
9076;SDS011;4574;51.072;17.174;2023-06-22T04:12:38;12.10;;;10.87;;
9076;SDS011;4574;51.072;17.174;2023-06-22T04:15:07;13.37;;;11.70;;
9076;SDS011;4574;51.072;17.174;2023-06-22T04:17:36;13.10;;;11.77;;
9076;SDS011;4574;51.072;17.174;2023-06-22T04:20:06;12.10;;;10.90;;
9076;SDS011;4574;51.072;17.174;2023-06-22T04:22:35;13.80;;;12.00;;
9076;SDS011;4574;51.072;17.174;2023-06-22T04:25:05;13.30;;;11.90;;
9076;SDS011;4574;51.072;17.174;2023-06-22T04:27:36;12.53;;;11.23;;
9076;SDS011;4574;51.072;17.174;2023-06-22T04:30:07;13.63;;;11.30;;
9076;SDS011;4574;51.072;17.174;2023-06-22T04:32:37;16.07;;;11.97;;
9076;SDS011;4574;51.072;17.174;2023-06-22T04:35:06;15.00;;;12.60;;
9076;SDS011;4574;51.072;17.174;2023-06-22T04:37:35;13.23;;;11.90;;
9076;SDS011;4574;51.072;17.174;2023-06-22T04:40:05;15.60;;;12.77;;
9076;SDS011;4574;51.072;17.174;2023-06-22T04:42:37;16.40;;;14.70;;
9076;SDS011;4574;51.072;17.174;2023-06-22T04:45:07;13.70;;;12.37;;
9076;SDS011;4574;51.072;17.174;2023-06-22T04:47:37;14.50;;;13.07;;
9076;SDS011;4574;51.072;17.174;2023-06-22T04:50:08;15.67;;;14.07;;
9076;SDS011;4574;51.072;17.174;2023-06-22T04:52:36;15.83;;;13.93;;
9076;SDS011;4574;51.072;17.174;2023-06-22T04:55:05;17.30;;;13.97;;
9076;SDS011;4574;51.072;17.174;2023-06-22T04:57:36;15.43;;;13.93;;
9076;SDS011;4574;51.072;17.174;2023-06-22T05:00:06;16.40;;;13.27;;
9076;SDS011;4574;51.072;17.174;2023-06-22T05:02:46;16.77;;;15.00;;
9076;SDS011;4574;51.072;17.174;2023-06-22T05:05:15;22.93;;;15.17;;
9076;SDS011;4574;51.072;17.174;2023-06-22T05:07:44;17.93;;;15.93;;
9076;SDS011;4574;51.072;17.174;2023-06-22T05:10:15;20.00;;;16.83;;
9076;SDS011;4574;51.072;17.174;2023-06-22T05:12:49;18.13;;;16.33;;
9076;SDS011;4574;51.072;17.174;2023-06-22T05:15:18;19.57;;;17.43;;
9076;SDS011;4574;51.072;17.174;2023-06-22T05:17:47;20.53;;;17.13;;
9076;SDS011;4574;51.072;17.174;2023-06-22T05:20:16;17.97;;;15.40;;
9076;SDS011;4574;51.072;17.174;2023-06-22T05:22:45;20.37;;;16.63;;
9076;SDS011;4574;51.072;17.174;2023-06-22T05:25:14;17.53;;;15.77;;
9076;SDS011;4574;51.072;17.174;2023-06-22T05:27:42;17.90;;;15.23;;
9076;SDS011;4574;51.072;17.174;2023-06-22T05:30:14;16.80;;;13.50;;
9076;SDS011;4574;51.072;17.174;2023-06-22T05:32:45;20.43;;;14.67;;
9076;SDS011;4574;51.072;17.174;2023-06-22T05:35:14;16.63;;;13.03;;
9076;SDS011;4574;51.072;17.174;2023-06-22T05:37:46;19.90;;;15.17;;
9076;SDS011;4574;51.072;17.174;2023-06-22T05:40:15;16.77;;;14.97;;
9076;SDS011;4574;51.072;17.174;2023-06-22T05:42:45;18.93;;;15.33;;
9076;SDS011;4574;51.072;17.174;2023-06-22T05:45:18;15.70;;;13.53;;
9076;SDS011;4574;51.072;17.174;2023-06-22T05:47:47;23.03;;;15.27;;
9076;SDS011;4574;51.072;17.174;2023-06-22T05:50:18;16.43;;;13.43;;
9076;SDS011;4574;51.072;17.174;2023-06-22T05:52:46;16.33;;;13.93;;
9076;SDS011;4574;51.072;17.174;2023-06-22T05:55:15;14.37;;;12.17;;
9076;SDS011;4574;51.072;17.174;2023-06-22T05:57:45;14.17;;;12.67;;
9076;SDS011;4574;51.072;17.174;2023-06-22T06:00:14;19.17;;;12.07;;
9076;SDS011;4574;51.072;17.174;2023-06-22T06:02:45;15.70;;;12.27;;
9076;SDS011;4574;51.072;17.174;2023-06-22T06:05:14;18.07;;;12.10;;
9076;SDS011;4574;51.072;17.174;2023-06-22T06:07:43;12.73;;;10.23;;
9076;SDS011;4574;51.072;17.174;2023-06-22T06:10:13;15.27;;;10.50;;
9076;SDS011;4574;51.072;17.174;2023-06-22T06:12:41;17.10;;;10.93;;
9076;SDS011;4574;51.072;17.174;2023-06-22T06:15:10;13.03;;;10.67;;
9076;SDS011;4574;51.072;17.174;2023-06-22T06:17:46;15.13;;;11.00;;
9076;SDS011;4574;51.072;17.174;2023-06-22T06:20:15;13.33;;;11.23;;
9076;SDS011;4574;51.072;17.174;2023-06-22T06:22:44;15.43;;;10.97;;
9076;SDS011;4574;51.072;17.174;2023-06-22T06:25:12;12.33;;;10.50;;
9076;SDS011;4574;51.072;17.174;2023-06-22T06:27:45;11.23;;;10.10;;
9076;SDS011;4574;51.072;17.174;2023-06-22T06:30:15;14.17;;;11.30;;
9076;SDS011;4574;51.072;17.174;2023-06-22T06:32:46;11.67;;;10.57;;
9076;SDS011;4574;51.072;17.174;2023-06-22T06:35:15;12.83;;;10.87;;
9076;SDS011;4574;51.072;17.174;2023-06-22T06:37:45;12.43;;;11.13;;
9076;SDS011;4574;51.072;17.174;2023-06-22T06:40:16;11.10;;;10.00;;
9076;SDS011;4574;51.072;17.174;2023-06-22T06:42:46;11.77;;;10.57;;
9076;SDS011;4574;51.072;17.174;2023-06-22T06:45:17;10.97;;;9.47;;
9076;SDS011;4574;51.072;17.174;2023-06-22T06:47:48;11.17;;;9.83;;
9076;SDS011;4574;51.072;17.174;2023-06-22T06:50:20;11.20;;;10.10;;
9076;SDS011;4574;51.072;17.174;2023-06-22T06:52:49;12.57;;;10.77;;
9076;SDS011;4574;51.072;17.174;2023-06-22T06:55:18;14.57;;;11.03;;
9076;SDS011;4574;51.072;17.174;2023-06-22T06:57:47;11.10;;;9.97;;
9076;SDS011;4574;51.072;17.174;2023-06-22T07:00:19;10.27;;;9.23;;
9076;SDS011;4574;51.072;17.174;2023-06-22T07:02:50;10.47;;;9.47;;
9076;SDS011;4574;51.072;17.174;2023-06-22T07:05:19;9.97;;;8.93;;
9076;SDS011;4574;51.072;17.174;2023-06-22T07:07:48;11.07;;;9.63;;
9076;SDS011;4574;51.072;17.174;2023-06-22T07:10:17;10.93;;;9.83;;
9076;SDS011;4574;51.072;17.174;2023-06-22T07:12:46;9.63;;;8.73;;
9076;SDS011;4574;51.072;17.174;2023-06-22T07:15:15;10.63;;;9.60;;
9076;SDS011;4574;51.072;17.174;2023-06-22T07:17:44;11.60;;;9.83;;
9076;SDS011;4574;51.072;17.174;2023-06-22T07:20:15;11.53;;;9.43;;
9076;SDS011;4574;51.072;17.174;2023-06-22T07:22:44;13.27;;;10.43;;
9076;SDS011;4574;51.072;17.174;2023-06-22T07:25:13;10.80;;;9.80;;
9076;SDS011;4574;51.072;17.174;2023-06-22T07:27:44;13.83;;;9.70;;
9076;SDS011;4574;51.072;17.174;2023-06-22T07:30:15;13.73;;;10.33;;
9076;SDS011;4574;51.072;17.174;2023-06-22T07:32:44;28.33;;;9.63;;
9076;SDS011;4574;51.072;17.174;2023-06-22T07:35:15;11.03;;;9.10;;
9076;SDS011;4574;51.072;17.174;2023-06-22T07:37:44;13.87;;;9.67;;
9076;SDS011;4574;51.072;17.174;2023-06-22T07:40:12;11.37;;;10.20;;
9076;SDS011;4574;51.072;17.174;2023-06-22T07:42:41;11.73;;;9.80;;
9076;SDS011;4574;51.072;17.174;2023-06-22T07:45:10;10.97;;;9.73;;
9076;SDS011;4574;51.072;17.174;2023-06-22T07:47:38;10.13;;;9.20;;
9076;SDS011;4574;51.072;17.174;2023-06-22T07:50:07;12.07;;;9.37;;
9076;SDS011;4574;51.072;17.174;2023-06-22T07:52:37;10.87;;;9.10;;
9076;SDS011;4574;51.072;17.174;2023-06-22T07:55:06;10.30;;;9.23;;
9076;SDS011;4574;51.072;17.174;2023-06-22T07:57:35;11.87;;;9.40;;
9076;SDS011;4574;51.072;17.174;2023-06-22T08:00:05;10.10;;;9.10;;
9076;SDS011;4574;51.072;17.174;2023-06-22T08:02:39;10.27;;;8.93;;
9076;SDS011;4574;51.072;17.174;2023-06-22T08:05:09;10.40;;;9.37;;
9076;SDS011;4574;51.072;17.174;2023-06-22T08:07:48;12.53;;;10.30;;
9076;SDS011;4574;51.072;17.174;2023-06-22T08:10:17;10.60;;;9.57;;
9076;SDS011;4574;51.072;17.174;2023-06-22T08:12:47;10.77;;;9.70;;
9076;SDS011;4574;51.072;17.174;2023-06-22T08:15:15;11.53;;;9.63;;
9076;SDS011;4574;51.072;17.174;2023-06-22T08:17:45;10.57;;;9.30;;
9076;SDS011;4574;51.072;17.174;2023-06-22T08:20:13;10.53;;;9.43;;
9076;SDS011;4574;51.072;17.174;2023-06-22T08:22:43;10.43;;;9.13;;
9076;SDS011;4574;51.072;17.174;2023-06-22T08:25:13;11.00;;;9.90;;
9076;SDS011;4574;51.072;17.174;2023-06-22T08:27:44;9.50;;;8.60;;
9076;SDS011;4574;51.072;17.174;2023-06-22T08:30:14;9.60;;;8.70;;
9076;SDS011;4574;51.072;17.174;2023-06-22T08:32:44;10.13;;;9.07;;
9076;SDS011;4574;51.072;17.174;2023-06-22T08:35:12;10.57;;;9.57;;
9076;SDS011;4574;51.072;17.174;2023-06-22T08:37:41;12.63;;;9.70;;
9076;SDS011;4574;51.072;17.174;2023-06-22T08:40:10;9.77;;;8.67;;
9076;SDS011;4574;51.072;17.174;2023-06-22T08:42:41;10.10;;;9.10;;
9076;SDS011;4574;51.072;17.174;2023-06-22T08:45:10;9.40;;;8.50;;
9076;SDS011;4574;51.072;17.174;2023-06-22T08:47:39;10.17;;;9.07;;
9076;SDS011;4574;51.072;17.174;2023-06-22T08:50:08;9.23;;;8.37;;
9076;SDS011;4574;51.072;17.174;2023-06-22T08:52:38;8.93;;;8.13;;
9076;SDS011;4574;51.072;17.174;2023-06-22T08:55:08;8.37;;;7.67;;
9076;SDS011;4574;51.072;17.174;2023-06-22T08:57:37;8.80;;;7.87;;
9076;SDS011;4574;51.072;17.174;2023-06-22T09:00:09;10.53;;;8.27;;
9076;SDS011;4574;51.072;17.174;2023-06-22T09:02:44;9.53;;;8.50;;
9076;SDS011;4574;51.072;17.174;2023-06-22T09:05:13;8.10;;;7.40;;
9076;SDS011;4574;51.072;17.174;2023-06-22T09:07:43;9.07;;;8.17;;
9076;SDS011;4574;51.072;17.174;2023-06-22T09:10:11;9.07;;;8.10;;
9076;SDS011;4574;51.072;17.174;2023-06-22T09:12:40;8.63;;;7.73;;
9076;SDS011;4574;51.072;17.174;2023-06-22T09:15:10;9.53;;;8.00;;
9076;SDS011;4574;51.072;17.174;2023-06-22T09:17:53;8.27;;;7.47;;
9076;SDS011;4574;51.072;17.174;2023-06-22T09:20:22;8.77;;;7.97;;
9076;SDS011;4574;51.072;17.174;2023-06-22T09:22:50;8.57;;;7.70;;
9076;SDS011;4574;51.072;17.174;2023-06-22T09:25:21;8.00;;;7.20;;
9076;SDS011;4574;51.072;17.174;2023-06-22T09:27:49;8.00;;;7.27;;
9076;SDS011;4574;51.072;17.174;2023-06-22T09:30:20;7.70;;;7.00;;
9076;SDS011;4574;51.072;17.174;2023-06-22T09:32:48;7.30;;;6.60;;
9076;SDS011;4574;51.072;17.174;2023-06-22T09:35:17;8.00;;;6.60;;
9076;SDS011;4574;51.072;17.174;2023-06-22T09:37:46;8.60;;;7.70;;
9076;SDS011;4574;51.072;17.174;2023-06-22T09:40:15;9.60;;;6.77;;
9076;SDS011;4574;51.072;17.174;2023-06-22T09:42:43;8.43;;;6.80;;
9076;SDS011;4574;51.072;17.174;2023-06-22T09:45:12;7.33;;;6.63;;
9076;SDS011;4574;51.072;17.174;2023-06-22T09:47:42;7.20;;;6.50;;
9076;SDS011;4574;51.072;17.174;2023-06-22T09:50:11;6.80;;;6.20;;
9076;SDS011;4574;51.072;17.174;2023-06-22T09:52:39;6.10;;;5.60;;
9076;SDS011;4574;51.072;17.174;2023-06-22T09:55:14;6.97;;;6.20;;
9076;SDS011;4574;51.072;17.174;2023-06-22T09:57:44;8.13;;;6.13;;
9076;SDS011;4574;51.072;17.174;2023-06-22T10:00:13;6.33;;;5.73;;
9076;SDS011;4574;51.072;17.174;2023-06-22T10:02:46;8.10;;;6.57;;
9076;SDS011;4574;51.072;17.174;2023-06-22T10:05:15;7.40;;;6.23;;
9076;SDS011;4574;51.072;17.174;2023-06-22T10:07:44;8.80;;;6.07;;
9076;SDS011;4574;51.072;17.174;2023-06-22T10:10:13;6.37;;;5.77;;
9076;SDS011;4574;51.072;17.174;2023-06-22T10:12:43;6.47;;;5.67;;
9076;SDS011;4574;51.072;17.174;2023-06-22T10:15:14;7.33;;;6.07;;
9076;SDS011;4574;51.072;17.174;2023-06-22T10:17:43;7.50;;;5.50;;
9076;SDS011;4574;51.072;17.174;2023-06-22T10:20:16;10.00;;;6.10;;
9076;SDS011;4574;51.072;17.174;2023-06-22T10:22:45;7.47;;;6.70;;
9076;SDS011;4574;51.072;17.174;2023-06-22T10:25:13;6.23;;;5.63;;
9076;SDS011;4574;51.072;17.174;2023-06-22T10:27:42;6.73;;;6.13;;
9076;SDS011;4574;51.072;17.174;2023-06-22T10:30:11;6.40;;;5.80;;
9076;SDS011;4574;51.072;17.174;2023-06-22T10:32:40;6.53;;;5.67;;
9076;SDS011;4574;51.072;17.174;2023-06-22T10:35:10;6.33;;;5.73;;
9076;SDS011;4574;51.072;17.174;2023-06-22T10:37:42;6.33;;;5.57;;
9076;SDS011;4574;51.072;17.174;2023-06-22T10:40:12;6.67;;;6.07;;
9076;SDS011;4574;51.072;17.174;2023-06-22T10:42:44;6.10;;;5.60;;
9076;SDS011;4574;51.072;17.174;2023-06-22T10:45:12;6.10;;;5.50;;
9076;SDS011;4574;51.072;17.174;2023-06-22T10:47:41;5.80;;;5.30;;
9076;SDS011;4574;51.072;17.174;2023-06-22T10:50:10;6.30;;;5.70;;
9076;SDS011;4574;51.072;17.174;2023-06-22T10:52:39;7.27;;;5.40;;
9076;SDS011;4574;51.072;17.174;2023-06-22T10:55:10;5.90;;;5.40;;
9076;SDS011;4574;51.072;17.174;2023-06-22T10:57:39;6.03;;;5.43;;
9076;SDS011;4574;51.072;17.174;2023-06-22T11:00:11;6.20;;;5.60;;
9076;SDS011;4574;51.072;17.174;2023-06-22T11:02:40;6.30;;;5.03;;
9076;SDS011;4574;51.072;17.174;2023-06-22T11:05:09;5.90;;;5.30;;
9076;SDS011;4574;51.072;17.174;2023-06-22T11:07:38;6.13;;;5.63;;
9076;SDS011;4574;51.072;17.174;2023-06-22T11:10:11;5.43;;;4.93;;
9076;SDS011;4574;51.072;17.174;2023-06-22T11:12:40;5.63;;;5.00;;
9076;SDS011;4574;51.072;17.174;2023-06-22T11:15:09;5.00;;;4.60;;
9076;SDS011;4574;51.072;17.174;2023-06-22T11:17:38;5.50;;;5.00;;
9076;SDS011;4574;51.072;17.174;2023-06-22T11:20:07;5.57;;;5.07;;
9076;SDS011;4574;51.072;17.174;2023-06-22T11:22:52;5.70;;;5.00;;
9076;SDS011;4574;51.072;17.174;2023-06-22T11:25:21;5.80;;;4.27;;
9076;SDS011;4574;51.072;17.174;2023-06-22T11:27:50;5.80;;;4.13;;
9076;SDS011;4574;51.072;17.174;2023-06-22T11:30:20;5.40;;;4.60;;
9076;SDS011;4574;51.072;17.174;2023-06-22T11:32:49;4.67;;;3.97;;
9076;SDS011;4574;51.072;17.174;2023-06-22T11:35:18;5.20;;;4.70;;
9076;SDS011;4574;51.072;17.174;2023-06-22T11:37:46;5.43;;;5.03;;
9076;SDS011;4574;51.072;17.174;2023-06-22T11:40:15;5.47;;;4.97;;
9076;SDS011;4574;51.072;17.174;2023-06-22T11:42:45;4.90;;;4.47;;
9076;SDS011;4574;51.072;17.174;2023-06-22T11:45:14;5.13;;;4.53;;
9076;SDS011;4574;51.072;17.174;2023-06-22T11:47:44;5.43;;;5.03;;
9076;SDS011;4574;51.072;17.174;2023-06-22T11:50:14;5.03;;;4.53;;
9076;SDS011;4574;51.072;17.174;2023-06-22T11:52:43;6.57;;;4.90;;
9076;SDS011;4574;51.072;17.174;2023-06-22T11:55:11;7.43;;;4.40;;
9076;SDS011;4574;51.072;17.174;2023-06-22T11:57:54;4.87;;;4.37;;
9076;SDS011;4574;51.072;17.174;2023-06-22T12:00:26;5.17;;;4.73;;
9076;SDS011;4574;51.072;17.174;2023-06-22T12:02:56;8.30;;;4.57;;
9076;SDS011;4574;51.072;17.174;2023-06-22T12:05:26;8.53;;;5.10;;
9076;SDS011;4574;51.072;17.174;2023-06-22T12:07:55;5.93;;;4.63;;
9076;SDS011;4574;51.072;17.174;2023-06-22T12:10:24;5.07;;;4.67;;
9076;SDS011;4574;51.072;17.174;2023-06-22T12:12:57;5.27;;;4.87;;
9076;SDS011;4574;51.072;17.174;2023-06-22T12:15:26;5.30;;;4.80;;
9076;SDS011;4574;51.072;17.174;2023-06-22T12:17:55;5.60;;;5.10;;
9076;SDS011;4574;51.072;17.174;2023-06-22T12:20:24;5.77;;;4.70;;
9076;SDS011;4574;51.072;17.174;2023-06-22T12:22:52;4.90;;;4.50;;
9076;SDS011;4574;51.072;17.174;2023-06-22T12:25:22;4.83;;;4.30;;
9076;SDS011;4574;51.072;17.174;2023-06-22T12:27:51;5.37;;;4.93;;
9076;SDS011;4574;51.072;17.174;2023-06-22T12:30:22;5.53;;;5.03;;
9076;SDS011;4574;51.072;17.174;2023-06-22T12:32:50;5.50;;;5.00;;
9076;SDS011;4574;51.072;17.174;2023-06-22T12:35:22;7.27;;;4.60;;
9076;SDS011;4574;51.072;17.174;2023-06-22T12:37:50;5.57;;;5.07;;
9076;SDS011;4574;51.072;17.174;2023-06-22T12:40:19;5.80;;;5.27;;
9076;SDS011;4574;51.072;17.174;2023-06-22T12:42:48;5.00;;;4.60;;
9076;SDS011;4574;51.072;17.174;2023-06-22T12:45:16;4.97;;;4.57;;
9076;SDS011;4574;51.072;17.174;2023-06-22T12:47:47;6.33;;;4.93;;
9076;SDS011;4574;51.072;17.174;2023-06-22T12:50:16;5.33;;;4.83;;
9076;SDS011;4574;51.072;17.174;2023-06-22T12:52:45;4.97;;;4.53;;
9076;SDS011;4574;51.072;17.174;2023-06-22T12:55:14;6.93;;;5.13;;
9076;SDS011;4574;51.072;17.174;2023-06-22T12:57:42;5.80;;;5.20;;
9076;SDS011;4574;51.072;17.174;2023-06-22T13:00:11;5.30;;;4.90;;
9076;SDS011;4574;51.072;17.174;2023-06-22T13:02:40;5.20;;;4.70;;
9076;SDS011;4574;51.072;17.174;2023-06-22T13:05:10;5.83;;;5.33;;
9076;SDS011;4574;51.072;17.174;2023-06-22T13:07:39;5.10;;;4.60;;
9076;SDS011;4574;51.072;17.174;2023-06-22T13:10:09;5.03;;;4.63;;
9076;SDS011;4574;51.072;17.174;2023-06-22T13:12:38;5.47;;;4.57;;
9076;SDS011;4574;51.072;17.174;2023-06-22T13:15:06;5.33;;;4.93;;
9076;SDS011;4574;51.072;17.174;2023-06-22T13:17:35;5.10;;;4.70;;
9076;SDS011;4574;51.072;17.174;2023-06-22T13:20:04;5.00;;;4.60;;
9076;SDS011;4574;51.072;17.174;2023-06-22T13:22:35;5.50;;;5.00;;
9076;SDS011;4574;51.072;17.174;2023-06-22T13:25:07;5.17;;;4.73;;
9076;SDS011;4574;51.072;17.174;2023-06-22T13:27:39;4.97;;;4.57;;
9076;SDS011;4574;51.072;17.174;2023-06-22T13:30:08;5.33;;;4.90;;
9076;SDS011;4574;51.072;17.174;2023-06-22T13:32:40;5.93;;;4.67;;
9076;SDS011;4574;51.072;17.174;2023-06-22T13:35:10;4.77;;;4.37;;
9076;SDS011;4574;51.072;17.174;2023-06-22T13:37:41;5.17;;;4.50;;
9076;SDS011;4574;51.072;17.174;2023-06-22T13:40:10;4.67;;;4.27;;
9076;SDS011;4574;51.072;17.174;2023-06-22T13:42:38;5.20;;;3.83;;
9076;SDS011;4574;51.072;17.174;2023-06-22T13:45:07;5.93;;;4.13;;
9076;SDS011;4574;51.072;17.174;2023-06-22T13:47:36;4.67;;;3.73;;
9076;SDS011;4574;51.072;17.174;2023-06-22T13:50:05;5.20;;;3.90;;
9076;SDS011;4574;51.072;17.174;2023-06-22T13:52:34;4.17;;;3.87;;
9076;SDS011;4574;51.072;17.174;2023-06-22T13:55:05;4.60;;;4.20;;
9076;SDS011;4574;51.072;17.174;2023-06-22T13:57:34;4.47;;;4.07;;
9076;SDS011;4574;51.072;17.174;2023-06-22T14:00:04;4.30;;;3.90;;
9076;SDS011;4574;51.072;17.174;2023-06-22T14:02:34;4.07;;;3.77;;
9076;SDS011;4574;51.072;17.174;2023-06-22T14:05:03;4.30;;;3.90;;
9076;SDS011;4574;51.072;17.174;2023-06-22T14:07:32;4.10;;;3.70;;
9076;SDS011;4574;51.072;17.174;2023-06-22T14:10:01;4.77;;;3.70;;
9076;SDS011;4574;51.072;17.174;2023-06-22T14:12:31;4.47;;;4.07;;
9076;SDS011;4574;51.072;17.174;2023-06-22T14:15:00;4.37;;;3.97;;
9076;SDS011;4574;51.072;17.174;2023-06-22T14:20:52;3.90;;;3.60;;
9076;SDS011;4574;51.072;17.174;2023-06-22T14:23:20;4.53;;;4.03;;
9076;SDS011;4574;51.072;17.174;2023-06-22T14:25:49;4.70;;;4.30;;
9076;SDS011;4574;51.072;17.174;2023-06-22T14:28:19;4.80;;;4.33;;
9076;SDS011;4574;51.072;17.174;2023-06-22T14:30:47;4.17;;;3.87;;
9076;SDS011;4574;51.072;17.174;2023-06-22T14:33:16;4.30;;;3.90;;
9076;SDS011;4574;51.072;17.174;2023-06-22T14:35:45;5.50;;;3.97;;
9076;SDS011;4574;51.072;17.174;2023-06-22T14:38:14;4.27;;;3.50;;
9076;SDS011;4574;51.072;17.174;2023-06-22T14:40:42;4.40;;;4.10;;
9076;SDS011;4574;51.072;17.174;2023-06-22T14:43:32;4.20;;;3.80;;
9076;SDS011;4574;51.072;17.174;2023-06-22T14:46:01;4.87;;;3.80;;
9076;SDS011;4574;51.072;17.174;2023-06-22T14:48:30;4.63;;;3.50;;
9076;SDS011;4574;51.072;17.174;2023-06-22T14:50:59;4.47;;;3.67;;
9076;SDS011;4574;51.072;17.174;2023-06-22T14:53:28;5.77;;;5.27;;
9076;SDS011;4574;51.072;17.174;2023-06-22T14:55:57;6.03;;;5.43;;
9076;SDS011;4574;51.072;17.174;2023-06-22T14:58:28;5.40;;;5.00;;
9076;SDS011;4574;51.072;17.174;2023-06-22T15:01:01;4.57;;;4.07;;
9076;SDS011;4574;51.072;17.174;2023-06-22T15:03:31;4.30;;;4.00;;
9076;SDS011;4574;51.072;17.174;2023-06-22T15:06:02;4.47;;;4.17;;
9076;SDS011;4574;51.072;17.174;2023-06-22T15:08:32;6.20;;;4.23;;